createdAt,value
2018-05-15T00:02:17.776Z,99.00
2018-05-15T00:04:45.843Z,99.10
2018-05-15T00:07:13.714Z,99.10
2018-05-15T00:09:42.004Z,99.20
2018-05-15T00:12:10.277Z,99.00
2018-05-15T00:14:38.743Z,99.40
2018-05-15T00:17:06.918Z,99.50
2018-05-15T00:19:35.224Z,99.30
2018-05-15T00:22:04.497Z,99.70
2018-05-15T00:24:32.366Z,99.70
2018-05-15T00:27:00.600Z,99.90
2018-05-15T00:29:28.713Z,99.70
2018-05-15T00:31:56.881Z,99.60
2018-05-15T00:34:25.344Z,99.80
2018-05-15T00:36:53.433Z,99.80
2018-05-15T00:39:21.497Z,99.80
2018-05-15T00:41:49.879Z,99.80
2018-05-15T00:44:18.281Z,99.80
2018-05-15T00:46:46.704Z,99.90
2018-05-15T00:49:15.021Z,99.90
2018-05-15T00:51:43.179Z,99.90
2018-05-15T00:54:11.565Z,99.90
2018-05-15T00:56:39.941Z,99.90
2018-05-15T00:59:08.220Z,99.90
2018-05-15T01:01:36.505Z,99.90
2018-05-15T01:04:05.459Z,99.90
2018-05-15T01:06:34.240Z,99.90
2018-05-15T01:09:02.445Z,99.90
2018-05-15T01:11:30.692Z,99.90
2018-05-15T01:13:59.611Z,99.90
2018-05-15T01:16:27.481Z,99.90
2018-05-15T01:18:55.544Z,99.90
2018-05-15T01:21:23.928Z,99.90
2018-05-15T01:23:52.517Z,99.90
2018-05-15T01:26:20.587Z,99.90
2018-05-15T01:28:49.480Z,99.90
2018-05-15T01:31:17.763Z,99.90
2018-05-15T01:33:45.928Z,99.90
2018-05-15T01:36:14.099Z,99.90
2018-05-15T01:38:42.176Z,99.90
2018-05-15T01:41:10.341Z,99.90
2018-05-15T01:43:38.595Z,99.90
2018-05-15T01:46:07.178Z,99.90
2018-05-15T01:48:35.391Z,99.90
2018-05-15T01:51:03.873Z,99.90
2018-05-15T01:53:32.234Z,99.90
2018-05-15T01:56:00.469Z,99.90
2018-05-15T01:58:28.375Z,99.90
2018-05-15T02:00:56.851Z,99.90
2018-05-15T02:03:25.006Z,99.90
2018-05-15T02:05:53.813Z,99.90
2018-05-15T02:08:22.166Z,99.90
2018-05-15T02:10:50.060Z,99.90
2018-05-15T02:13:18.422Z,99.90
2018-05-15T02:15:46.738Z,99.90
2018-05-15T02:18:15.705Z,99.90
2018-05-15T02:20:43.878Z,99.90
2018-05-15T02:23:11.907Z,99.90
2018-05-15T02:25:40.341Z,99.90
2018-05-15T02:28:08.737Z,99.90
2018-05-15T02:30:37.714Z,99.90
2018-05-15T02:33:06.695Z,99.90
2018-05-15T02:35:34.828Z,99.90
2018-05-15T02:38:03.036Z,99.90
2018-05-15T02:40:31.215Z,99.90
2018-05-15T02:42:59.461Z,99.90
2018-05-15T02:45:27.633Z,99.90
2018-05-15T02:47:56.165Z,99.90
2018-05-15T02:50:25.340Z,99.90
2018-05-15T02:52:53.717Z,99.90
2018-05-15T02:55:21.580Z,99.90
2018-05-15T02:57:49.449Z,99.90
2018-05-15T03:00:17.622Z,99.90
2018-05-15T03:02:46.387Z,99.90
2018-05-15T03:05:15.406Z,99.90
2018-05-15T03:07:43.780Z,99.90
2018-05-15T03:10:11.967Z,99.90
2018-05-15T03:12:40.134Z,99.90
2018-05-15T03:15:08.606Z,99.90
2018-05-15T03:17:36.782Z,99.90
2018-05-15T03:20:04.850Z,99.90
2018-05-15T03:22:32.998Z,99.90
2018-05-15T03:25:01.250Z,99.90
2018-05-15T03:27:29.299Z,99.90
2018-05-15T03:29:58.468Z,99.90
2018-05-15T03:32:26.749Z,99.90
2018-05-15T03:34:55.117Z,99.90
2018-05-15T03:37:23.479Z,99.90
2018-05-15T03:39:51.678Z,99.90
2018-05-15T03:42:19.961Z,99.90
2018-05-15T03:44:48.122Z,99.90
2018-05-15T03:47:16.299Z,99.90
2018-05-15T03:49:44.157Z,99.90
2018-05-15T03:52:12.711Z,99.90
2018-05-15T03:54:41.237Z,99.90
2018-05-15T03:57:09.501Z,99.90
2018-05-15T03:59:38.576Z,99.90
2018-05-15T04:05:22.676Z,99.90
2018-05-15T04:08:02.631Z,99.90
2018-05-15T04:10:31.925Z,99.90
2018-05-15T04:13:00.562Z,99.90
2018-05-15T04:15:29.172Z,99.90
2018-05-15T04:17:57.732Z,99.90
2018-05-15T04:20:25.834Z,99.90
2018-05-15T04:22:54.117Z,99.90
2018-05-15T04:25:22.281Z,99.90
2018-05-15T04:27:50.572Z,99.90
2018-05-15T04:30:18.736Z,99.90
2018-05-15T04:32:48.131Z,99.90
2018-05-15T04:35:16.511Z,99.90
2018-05-15T04:37:45.102Z,99.90
2018-05-15T04:40:14.521Z,99.90
2018-05-15T04:42:43.653Z,99.90
2018-05-15T04:45:11.900Z,99.90
2018-05-15T04:47:41.180Z,99.70
2018-05-15T04:50:11.062Z,99.70
2018-05-15T04:52:39.644Z,99.90
2018-05-15T04:55:07.867Z,99.90
2018-05-15T04:57:37.057Z,99.90
2018-05-15T05:00:05.562Z,99.90
2018-05-15T05:02:33.925Z,99.90
2018-05-15T05:05:03.412Z,99.90
2018-05-15T05:07:31.592Z,99.90
2018-05-15T05:10:00.797Z,99.90
2018-05-15T05:12:29.806Z,99.90
2018-05-15T05:14:58.879Z,99.90
2018-05-15T05:17:27.903Z,99.40
2018-05-15T05:19:56.955Z,99.40
2018-05-15T05:22:25.454Z,99.50
2018-05-15T05:24:54.713Z,99.10
2018-05-15T05:27:23.228Z,99.10
2018-05-15T05:29:53.125Z,99.20
2018-05-15T05:32:22.436Z,98.60
2018-05-15T05:34:50.799Z,98.70
2018-05-15T05:37:21.059Z,98.70
2018-05-15T05:39:49.513Z,98.60
2018-05-15T05:42:18.014Z,98.40
2018-05-15T05:44:46.759Z,97.80
2018-05-15T05:47:15.265Z,97.60
2018-05-15T05:49:44.555Z,97.10
2018-05-15T05:52:12.933Z,97.10
2018-05-15T05:54:41.383Z,97.20
2018-05-15T05:57:09.810Z,96.70
2018-05-15T05:59:39.326Z,96.70
2018-05-15T06:02:08.880Z,96.30
2018-05-15T06:04:37.499Z,96.30
2018-05-15T06:07:07.264Z,96.00
2018-05-15T06:09:35.485Z,96.00
2018-05-15T06:12:05.766Z,95.10
2018-05-15T06:14:34.298Z,95.10
2018-05-15T06:17:03.684Z,95.30
2018-05-15T06:19:32.419Z,95.20
2018-05-15T06:22:00.821Z,94.30
2018-05-15T06:24:29.300Z,94.00
2018-05-15T06:26:57.546Z,93.70
2018-05-15T06:29:26.003Z,93.60
2018-05-15T06:31:56.049Z,92.10
2018-05-15T06:34:24.361Z,92.10
2018-05-15T06:36:52.746Z,91.60
2018-05-15T06:39:21.426Z,91.20
2018-05-15T06:41:49.594Z,90.10
2018-05-15T06:44:17.801Z,87.50
2018-05-15T06:46:47.754Z,89.70
2018-05-15T06:49:16.748Z,89.70
2018-05-15T06:51:45.088Z,90.20
2018-05-15T06:54:14.386Z,91.00
2018-05-15T06:56:43.571Z,91.00
2018-05-15T06:59:12.160Z,91.00
2018-05-15T07:01:41.099Z,90.60
2018-05-15T07:04:10.045Z,90.60
2018-05-15T07:06:39.389Z,85.10
2018-05-15T07:09:08.318Z,85.00
2018-05-15T07:11:36.291Z,82.40
2018-05-15T07:14:05.282Z,83.00
2018-05-15T07:16:33.796Z,81.00
2018-05-15T07:19:02.577Z,80.40
2018-05-15T07:21:31.889Z,71.70
2018-05-15T07:24:00.421Z,71.70
2018-05-15T07:26:29.020Z,66.50
2018-05-15T07:28:57.290Z,65.90
2018-05-15T07:31:25.894Z,62.80
2018-05-15T07:33:55.183Z,58.60
2018-05-15T07:36:26.454Z,58.50
2018-05-15T07:38:55.230Z,58.10
2018-05-15T07:41:24.060Z,56.20
2018-05-15T07:43:53.298Z,56.10
2018-05-15T07:46:22.369Z,54.50
2018-05-15T07:48:51.019Z,54.80
2018-05-15T07:51:19.479Z,53.70
2018-05-15T07:53:48.797Z,51.60
2018-05-15T07:56:17.281Z,51.60
2018-05-15T07:58:46.029Z,50.30
2018-05-15T08:01:14.509Z,48.40
2018-05-15T08:03:43.080Z,48.60
2018-05-15T08:06:11.563Z,48.90
2018-05-15T08:08:40.162Z,49.70
2018-05-15T08:11:08.427Z,49.80
2018-05-15T08:13:37.262Z,49.50
2018-05-15T08:16:05.992Z,46.50
2018-05-15T08:18:34.392Z,46.90
2018-05-15T08:21:03.178Z,46.20
2018-05-15T08:23:31.661Z,46.10
2018-05-15T08:26:00.436Z,43.70
2018-05-15T08:28:29.123Z,43.60
2018-05-15T08:30:59.217Z,42.10
2018-05-15T08:33:27.630Z,43.50
2018-05-15T08:35:56.723Z,40.00
2018-05-15T08:38:25.429Z,39.90
2018-05-15T08:40:54.393Z,41.20
2018-05-15T08:43:22.991Z,41.10
2018-05-15T08:45:52.213Z,41.30
2018-05-15T08:48:20.788Z,41.20
2018-05-15T08:50:50.324Z,44.00
2018-05-15T08:53:18.466Z,42.80
2018-05-15T08:55:48.566Z,43.60
2018-05-15T08:58:18.150Z,45.20
2018-05-15T09:00:46.647Z,45.10
2018-05-15T09:03:15.427Z,46.90
2018-05-15T09:05:44.125Z,47.60
2018-05-15T09:08:13.441Z,50.00
2018-05-15T09:10:42.843Z,50.40
2018-05-15T09:13:12.025Z,51.20
2018-05-15T09:15:41.336Z,53.40
2018-05-15T09:18:10.788Z,54.50
2018-05-15T09:20:39.408Z,54.40
2018-05-15T09:23:07.766Z,55.20
2018-05-15T09:25:36.479Z,54.90
2018-05-15T09:28:06.664Z,57.80
2018-05-15T09:30:34.942Z,57.70
2018-05-15T09:33:03.474Z,57.70
2018-05-15T09:35:32.969Z,59.10
2018-05-15T09:38:01.951Z,59.70
2018-05-15T09:40:31.249Z,57.70
2018-05-15T09:42:59.705Z,57.70
2018-05-15T09:45:28.424Z,52.30
2018-05-15T09:47:57.696Z,46.50
2018-05-15T09:50:26.090Z,46.40
2018-05-15T09:52:54.585Z,41.00
2018-05-15T09:55:23.854Z,38.30
2018-05-15T09:57:52.565Z,38.20
2018-05-15T10:00:27.814Z,36.30
2018-05-15T10:02:57.185Z,38.90
2018-05-15T10:05:25.770Z,38.90
2018-05-15T10:07:54.567Z,40.50
2018-05-15T10:10:24.703Z,41.90
2018-05-15T10:12:53.792Z,42.80
2018-05-15T10:15:22.959Z,40.30
2018-05-15T10:17:51.898Z,40.20
2018-05-15T10:20:21.672Z,40.60
2018-05-15T10:22:50.444Z,39.70
2018-05-15T10:25:18.855Z,40.60
2018-05-15T10:27:48.112Z,43.50
2018-05-15T10:30:16.935Z,43.50
2018-05-15T10:32:45.227Z,44.30
2018-05-15T10:35:14.817Z,46.70
2018-05-15T10:37:42.925Z,46.70
2018-05-15T10:40:11.553Z,47.70
2018-05-15T10:42:39.935Z,47.60
2018-05-15T10:45:08.549Z,47.70
2018-05-15T10:47:37.642Z,48.20
2018-05-15T10:50:07.445Z,47.90
2018-05-15T10:52:36.993Z,45.30
2018-05-15T10:55:05.622Z,45.30
2018-05-15T10:57:34.115Z,45.60
2018-05-15T11:00:02.398Z,44.20
2018-05-15T11:02:30.774Z,40.90
2018-05-15T11:05:00.155Z,36.90
2018-05-15T11:07:29.468Z,36.10
2018-05-15T11:09:57.863Z,36.00
2018-05-15T11:12:27.358Z,39.00
2018-05-15T11:14:56.353Z,40.60
2018-05-15T11:17:25.736Z,41.10
2018-05-15T11:20:06.321Z,42.30
2018-05-15T11:22:47.364Z,43.50
2018-05-15T11:25:15.778Z,43.50
2018-05-15T11:27:45.235Z,44.80
2018-05-15T11:30:14.010Z,44.80
2018-05-15T11:32:42.487Z,43.40
2018-05-15T11:35:10.798Z,44.20
2018-05-15T11:37:40.092Z,43.20
2018-05-15T11:40:08.485Z,43.60
2018-05-15T11:42:38.555Z,44.00
2018-05-15T11:45:06.578Z,45.20
2018-05-15T11:47:36.693Z,43.40
2018-05-15T11:50:06.637Z,41.80
2018-05-15T11:52:34.667Z,40.50
2018-05-15T11:55:03.070Z,40.90
2018-05-15T11:57:32.577Z,44.10
2018-05-15T12:00:02.146Z,44.90
2018-05-15T12:02:30.965Z,44.80
2018-05-15T12:04:59.438Z,44.90
2018-05-15T12:07:28.243Z,43.40
2018-05-15T12:09:57.515Z,45.40
2018-05-15T12:12:26.135Z,45.40
2018-05-15T12:14:55.448Z,48.00
2018-05-15T12:17:25.018Z,48.00
2018-05-15T12:19:53.804Z,49.00
2018-05-15T12:22:21.970Z,49.30
2018-05-15T12:24:50.767Z,49.10
2018-05-15T12:27:19.387Z,49.50
2018-05-15T12:29:47.917Z,50.00
2018-05-15T12:32:16.398Z,50.60
2018-05-15T12:34:45.392Z,51.00
2018-05-15T12:37:13.792Z,51.50
2018-05-15T12:39:42.567Z,51.50
2018-05-15T12:42:11.037Z,51.10
2018-05-15T12:44:40.146Z,51.20
2018-05-15T12:47:08.864Z,51.10
2018-05-15T12:49:37.841Z,51.20
2018-05-15T12:52:07.125Z,52.30
2018-05-15T12:54:35.507Z,52.20
2018-05-15T12:57:04.606Z,52.00
2018-05-15T12:59:34.012Z,51.10
2018-05-15T13:02:05.170Z,51.00
2018-05-15T13:04:34.432Z,51.90
2018-05-15T13:07:02.925Z,51.90
2018-05-15T13:09:31.296Z,51.30
2018-05-15T13:11:59.793Z,51.80
2018-05-15T13:14:30.357Z,50.20
2018-05-15T13:16:59.060Z,50.10
2018-05-15T13:19:27.681Z,49.80
2018-05-15T13:21:57.453Z,50.40
2018-05-15T13:24:26.216Z,50.30
2018-05-15T13:26:55.597Z,50.10
2018-05-15T13:29:25.324Z,45.50
2018-05-15T13:31:53.989Z,45.40
2018-05-15T13:34:23.439Z,40.60
2018-05-15T13:36:52.265Z,41.30
2018-05-15T13:39:20.975Z,40.90
2018-05-15T13:41:50.454Z,40.90
2018-05-15T13:44:20.185Z,40.80
2018-05-15T13:46:49.760Z,39.80
2018-05-15T13:49:18.160Z,39.80
2018-05-15T13:51:47.543Z,41.00
2018-05-15T13:54:16.642Z,41.50
2018-05-15T13:56:46.869Z,42.80
2018-05-15T13:59:16.049Z,41.60
2018-05-15T14:01:44.963Z,41.70
2018-05-15T14:04:13.334Z,39.30
2018-05-15T14:06:42.520Z,37.80
2018-05-15T14:09:11.307Z,38.30
2018-05-15T14:11:39.919Z,37.70
2018-05-15T14:14:09.601Z,38.00
2018-05-15T14:16:37.989Z,38.00
2018-05-15T14:19:06.410Z,38.90
2018-05-15T14:21:34.858Z,39.30
2018-05-15T14:24:03.772Z,40.00
2018-05-15T14:26:32.677Z,40.20
2018-05-15T14:29:01.126Z,41.30
2018-05-15T14:31:30.763Z,41.30
2018-05-15T14:33:59.285Z,41.20
2018-05-15T14:36:27.976Z,40.40
2018-05-15T14:38:56.279Z,40.70
2018-05-15T14:41:37.501Z,40.50
2018-05-15T14:44:06.849Z,39.80
2018-05-15T14:46:35.744Z,39.80
2018-05-15T14:49:05.028Z,41.50
2018-05-15T14:51:33.521Z,41.50
2018-05-15T14:54:08.057Z,43.30
2018-05-15T14:56:36.508Z,43.30
2018-05-15T14:59:04.614Z,42.70
2018-05-15T15:01:34.288Z,41.90
2018-05-15T15:04:02.687Z,41.90
2018-05-15T15:06:32.359Z,45.20
2018-05-15T15:09:01.570Z,45.20
2018-05-15T15:11:30.111Z,45.90
2018-05-15T15:13:58.751Z,47.60
2018-05-15T15:16:27.168Z,48.10
2018-05-15T15:18:57.791Z,48.80
2018-05-15T15:21:26.142Z,49.60
2018-05-15T15:23:55.575Z,51.10
2018-05-15T15:26:25.711Z,53.20
2018-05-15T15:28:54.959Z,53.10
2018-05-15T15:31:25.838Z,53.80
2018-05-15T15:33:54.782Z,53.30
2018-05-15T15:36:22.959Z,53.80
2018-05-15T15:38:52.687Z,55.60
2018-05-15T15:41:22.687Z,55.60
2018-05-15T15:43:52.000Z,56.50
2018-05-15T15:46:21.068Z,56.60
2018-05-15T15:48:50.191Z,56.60
2018-05-15T15:51:19.438Z,57.70
2018-05-15T15:53:47.550Z,57.70
2018-05-15T15:56:16.846Z,59.10
2018-05-15T15:58:45.412Z,59.20
2018-05-15T16:01:14.043Z,59.80
2018-05-15T16:03:42.750Z,60.80
2018-05-15T16:06:11.087Z,61.10
2018-05-15T16:08:40.198Z,61.30
2018-05-15T16:11:09.359Z,61.20
2018-05-15T16:13:38.048Z,61.20
2018-05-15T16:16:06.323Z,62.80
2018-05-15T16:18:34.935Z,61.60
2018-05-15T16:21:04.526Z,61.80
2018-05-15T16:23:32.958Z,61.70
2018-05-15T16:26:01.359Z,61.90
2018-05-15T16:28:30.412Z,63.30
2018-05-15T16:30:59.071Z,64.20
2018-05-15T16:33:28.463Z,64.80
2018-05-15T16:35:56.727Z,64.80
2018-05-15T16:38:25.311Z,65.40
2018-05-15T16:40:54.438Z,70.70
2018-05-15T16:43:24.124Z,75.00
2018-05-15T16:45:53.470Z,79.90
2018-05-15T16:48:23.787Z,86.00
2018-05-15T16:50:53.503Z,90.00
2018-05-15T16:53:23.256Z,90.00
2018-05-15T16:55:52.366Z,94.10
2018-05-15T16:58:21.160Z,94.00
2018-05-15T17:00:51.068Z,97.80
2018-05-15T17:03:20.199Z,99.40
2018-05-15T17:05:48.639Z,99.40
2018-05-15T17:08:17.155Z,99.90
2018-05-15T17:10:46.727Z,99.90
2018-05-15T17:13:16.364Z,99.90
2018-05-15T17:15:45.278Z,99.90
2018-05-15T17:18:13.582Z,99.90
2018-05-15T17:20:42.079Z,99.90
2018-05-15T17:23:10.766Z,99.90
2018-05-15T17:25:39.229Z,99.90
2018-05-15T17:28:07.646Z,99.90
2018-05-15T17:30:37.327Z,99.90
2018-05-15T17:33:07.227Z,99.90
2018-05-15T17:35:35.630Z,99.90
2018-05-15T17:38:04.206Z,99.90
2018-05-15T17:40:32.719Z,99.90
2018-05-15T17:43:01.087Z,99.90
2018-05-15T17:45:32.430Z,99.90
2018-05-15T17:48:02.143Z,99.90
2018-05-15T17:50:31.309Z,99.90
2018-05-15T17:52:59.730Z,99.90
2018-05-15T17:55:29.207Z,99.90
2018-05-15T17:57:57.846Z,99.90
2018-05-15T18:00:26.287Z,99.90
2018-05-15T18:02:55.773Z,99.90
2018-05-15T18:05:24.142Z,99.90
2018-05-15T18:07:52.479Z,99.90
2018-05-15T18:10:21.022Z,99.90
2018-05-15T18:12:53.487Z,99.90
2018-05-15T18:15:22.359Z,99.90
2018-05-15T18:17:50.750Z,99.90
2018-05-15T18:20:20.801Z,99.90
2018-05-15T18:22:49.405Z,99.90
2018-05-15T18:25:17.926Z,99.90
2018-05-15T18:27:47.071Z,99.90
2018-05-15T18:30:15.425Z,99.90
2018-05-15T18:32:44.814Z,99.90
2018-05-15T18:35:13.413Z,99.90
2018-05-15T18:37:43.326Z,99.90
2018-05-15T18:40:12.416Z,99.90
2018-05-15T18:42:40.801Z,99.90
2018-05-15T18:45:10.078Z,99.90
2018-05-15T18:47:39.503Z,99.90
2018-05-15T18:50:09.255Z,99.90
2018-05-15T18:52:39.118Z,99.90
2018-05-15T18:55:07.793Z,99.90
2018-05-15T18:57:36.494Z,99.90
2018-05-15T19:00:07.439Z,99.90
2018-05-15T19:02:35.806Z,99.90
2018-05-15T19:05:06.350Z,99.90
2018-05-15T19:07:34.728Z,99.90
2018-05-15T19:10:04.143Z,99.90
2018-05-15T19:12:33.088Z,99.90
2018-05-15T19:15:01.630Z,99.90
2018-05-15T19:17:31.726Z,99.90
2018-05-15T19:20:04.804Z,99.90
2018-05-15T19:22:33.367Z,99.90
2018-05-15T19:25:01.663Z,99.90
2018-05-15T19:27:31.071Z,99.90
2018-05-15T19:30:00.166Z,99.90
2018-05-15T19:32:35.183Z,99.90
2018-05-15T19:35:08.527Z,99.90
2018-05-15T19:40:16.271Z,99.90
2018-05-15T19:42:44.878Z,99.90
2018-05-15T19:45:14.641Z,99.90
2018-05-15T19:47:44.079Z,99.90
2018-05-15T19:50:14.463Z,99.90
2018-05-15T19:52:43.568Z,99.90
2018-05-15T19:55:11.895Z,99.90
2018-05-15T19:57:40.963Z,99.90
2018-05-15T20:00:11.047Z,99.90
2018-05-15T20:02:41.550Z,99.90
2018-05-15T20:05:10.879Z,99.90
2018-05-15T20:07:39.311Z,99.90
2018-05-15T20:10:08.687Z,99.90
2018-05-15T20:12:38.800Z,99.90
2018-05-15T20:15:08.450Z,99.90
2018-05-15T20:17:37.839Z,99.90
2018-05-15T20:20:10.799Z,99.90
2018-05-15T20:22:39.527Z,99.90
2018-05-15T20:25:08.799Z,99.90
2018-05-15T20:27:37.391Z,99.90
2018-05-15T20:30:06.591Z,99.90
2018-05-15T20:32:36.799Z,99.90
2018-05-15T20:35:06.397Z,99.90
2018-05-15T20:37:35.095Z,99.90
2018-05-15T20:40:03.280Z,99.90
2018-05-15T20:42:32.926Z,99.90
2018-05-15T20:45:01.487Z,99.90
2018-05-15T20:47:31.167Z,99.90
2018-05-15T20:49:59.711Z,99.90
2018-05-15T20:52:28.039Z,99.90
2018-05-15T20:54:56.398Z,99.90
2018-05-15T20:57:24.904Z,99.90
2018-05-15T20:59:53.807Z,99.90
2018-05-15T21:02:22.863Z,99.90
2018-05-15T21:04:51.172Z,99.90
2018-05-15T21:07:20.299Z,99.90
2018-05-15T21:09:49.045Z,99.90
2018-05-15T21:12:18.241Z,99.90
2018-05-15T21:14:47.702Z,99.90
2018-05-15T21:17:16.241Z,99.90
2018-05-15T21:19:47.271Z,99.90
2018-05-15T21:22:16.061Z,99.90
2018-05-15T21:24:45.430Z,99.90
2018-05-15T21:27:14.328Z,99.90
2018-05-15T21:29:42.810Z,99.90
2018-05-15T21:32:11.106Z,99.90
2018-05-15T21:34:41.124Z,99.90
2018-05-15T21:37:10.128Z,99.90
2018-05-15T21:39:39.263Z,99.90
2018-05-15T21:42:07.685Z,99.90
2018-05-15T21:44:35.856Z,99.90
2018-05-15T21:47:04.746Z,99.90
2018-05-15T21:49:32.793Z,99.90
2018-05-15T21:52:01.096Z,99.90
2018-05-15T21:54:29.563Z,99.90
2018-05-15T21:56:58.443Z,99.90
2018-05-15T21:59:27.043Z,99.90
2018-05-15T22:01:55.403Z,99.90
2018-05-15T22:04:24.007Z,99.90
2018-05-15T22:06:52.806Z,99.90
2018-05-15T22:09:22.539Z,99.90
2018-05-15T22:12:02.338Z,99.90
2018-05-15T22:14:42.294Z,99.90
2018-05-15T22:17:22.359Z,99.90
2018-05-15T22:20:02.180Z,99.90
2018-05-15T22:22:30.573Z,99.90
2018-05-15T22:25:00.691Z,99.90
2018-05-15T22:27:28.676Z,99.90
2018-05-15T22:29:58.774Z,99.90
2018-05-15T22:32:27.196Z,99.90
2018-05-15T22:34:55.665Z,99.90
2018-05-15T22:37:26.061Z,99.90
2018-05-15T22:39:54.956Z,99.90
2018-05-15T22:42:27.028Z,99.90
2018-05-15T22:44:56.182Z,99.90
2018-05-15T22:47:25.518Z,99.90
2018-05-15T22:49:53.678Z,99.90
2018-05-15T22:52:22.564Z,99.90
2018-05-15T22:54:50.964Z,99.90
2018-05-15T22:57:19.453Z,99.90
2018-05-15T22:59:49.339Z,99.90
2018-05-15T23:02:17.224Z,99.90
2018-05-15T23:04:45.585Z,99.90
2018-05-15T23:07:14.149Z,99.90
2018-05-15T23:09:42.135Z,99.90
2018-05-15T23:12:10.713Z,99.90
2018-05-15T23:14:39.017Z,99.90
2018-05-15T23:17:09.125Z,99.90
2018-05-15T23:19:37.374Z,99.90
2018-05-15T23:22:05.285Z,99.90
2018-05-15T23:24:34.471Z,99.90
2018-05-15T23:27:02.623Z,99.90
2018-05-15T23:29:30.786Z,99.90
2018-05-15T23:31:59.306Z,99.90
2018-05-15T23:34:28.395Z,99.90
2018-05-15T23:36:56.243Z,99.90
2018-05-15T23:39:24.108Z,99.90
2018-05-15T23:41:54.940Z,99.90
2018-05-15T23:44:24.108Z,99.90
2018-05-15T23:46:52.203Z,99.90
2018-05-15T23:49:20.683Z,99.90
2018-05-15T23:51:48.970Z,99.90
2018-05-15T23:54:17.657Z,99.90
2018-05-15T23:56:46.021Z,99.90
2018-05-15T23:59:14.218Z,99.90
